createdAt,value
2023-05-13T00:02:06.814Z,14.96
2023-05-13T00:04:36.286Z,14.96
2023-05-13T00:07:04.415Z,14.95
2023-05-13T00:09:32.424Z,14.96
2023-05-13T00:12:00.562Z,14.92
2023-05-13T00:14:28.581Z,14.91
2023-05-13T00:16:58.704Z,14.90
2023-05-13T00:19:27.450Z,14.89
2023-05-13T00:21:56.766Z,14.87
2023-05-13T00:24:24.834Z,14.85
2023-05-13T00:26:52.829Z,14.88
2023-05-13T00:29:21.222Z,14.88
2023-05-13T00:31:49.485Z,14.86
2023-05-13T00:34:18.531Z,14.85
2023-05-13T00:36:46.868Z,14.83
2023-05-13T00:39:16.260Z,14.81
2023-05-13T00:41:44.317Z,14.82
2023-05-13T00:44:14.490Z,14.77
2023-05-13T00:46:43.288Z,14.74
2023-05-13T00:49:15.002Z,14.75
2023-05-13T00:51:45.130Z,14.70
2023-05-13T00:54:18.846Z,14.69
2023-05-13T00:56:46.939Z,14.64
2023-05-13T00:59:14.931Z,14.61
2023-05-13T01:01:53.521Z,14.62
2023-05-13T01:04:31.916Z,14.64
2023-05-13T01:07:10.104Z,14.63
2023-05-13T01:09:50.311Z,14.62
2023-05-13T01:12:33.797Z,14.62
2023-05-13T01:15:08.147Z,14.51
2023-05-13T01:17:48.647Z,14.51
2023-05-13T01:20:22.164Z,14.53
2023-05-13T01:22:51.969Z,14.51
2023-05-13T01:25:20.366Z,14.45
2023-05-13T01:27:49.271Z,14.51
2023-05-13T01:30:18.842Z,14.55
2023-05-13T01:32:47.267Z,14.45
2023-05-13T01:35:17.392Z,14.39
2023-05-13T01:37:47.654Z,14.38
2023-05-13T01:40:30.992Z,14.36
2023-05-13T01:43:01.986Z,14.35
2023-05-13T01:45:30.772Z,14.31
2023-05-13T01:47:59.777Z,14.36
2023-05-13T01:50:37.965Z,14.30
2023-05-13T01:53:06.535Z,14.20
2023-05-13T01:55:35.880Z,14.25
2023-05-13T01:58:05.607Z,14.21
2023-05-13T02:00:33.644Z,14.18
2023-05-13T02:03:01.816Z,14.16
2023-05-13T02:05:31.560Z,14.15
2023-05-13T02:08:00.302Z,14.11
2023-05-13T02:10:28.338Z,14.12
2023-05-13T02:12:58.466Z,14.10
2023-05-13T02:15:26.490Z,14.09
2023-05-13T02:17:54.733Z,14.08
2023-05-13T02:20:23.214Z,14.03
2023-05-13T02:22:52.185Z,14.00
2023-05-13T02:25:20.761Z,14.00
2023-05-13T02:27:48.785Z,13.94
2023-05-13T02:30:18.472Z,13.96
2023-05-13T02:32:46.555Z,13.95
2023-05-13T02:35:15.055Z,13.97
2023-05-13T02:37:43.460Z,13.95
2023-05-13T02:40:13.646Z,13.94
2023-05-13T02:42:43.228Z,13.83
2023-05-13T02:45:13.129Z,13.74
2023-05-13T02:47:46.035Z,13.77
2023-05-13T02:50:14.289Z,13.77
2023-05-13T02:52:44.106Z,13.77
2023-05-13T02:55:12.580Z,13.76
2023-05-13T02:57:40.685Z,13.78
2023-05-13T03:00:11.067Z,13.78
2023-05-13T03:02:39.534Z,13.76
2023-05-13T03:05:10.187Z,13.79
2023-05-13T03:07:38.219Z,13.77
2023-05-13T03:10:08.935Z,13.74
2023-05-13T03:12:37.120Z,13.73
2023-05-13T03:15:05.708Z,13.75
2023-05-13T03:17:34.224Z,13.73
2023-05-13T03:20:02.926Z,13.73
2023-05-13T03:22:33.302Z,13.73
2023-05-13T03:25:01.453Z,13.71
2023-05-13T03:27:36.258Z,13.74
2023-05-13T03:30:04.830Z,13.73
2023-05-13T03:32:35.528Z,13.74
2023-05-13T03:35:04.331Z,13.71
2023-05-13T03:37:34.557Z,13.67
2023-05-13T03:40:02.845Z,13.61
2023-05-13T03:42:31.241Z,13.60
2023-05-13T03:45:02.757Z,13.57
2023-05-13T03:47:31.940Z,13.61
2023-05-13T03:50:03.479Z,13.64
2023-05-13T03:52:39.892Z,13.63
2023-05-13T03:55:09.068Z,13.61
2023-05-13T03:57:37.136Z,13.64
2023-05-13T04:00:08.026Z,13.61
2023-05-13T04:02:43.285Z,13.58
2023-05-13T04:05:13.817Z,13.60
2023-05-13T04:07:43.481Z,13.61
2023-05-13T04:10:18.025Z,13.63
2023-05-13T04:12:46.191Z,13.63
2023-05-13T04:15:14.187Z,13.65
2023-05-13T04:17:42.274Z,13.62
2023-05-13T04:20:11.188Z,13.65
2023-05-13T04:22:39.213Z,13.68
2023-05-13T04:25:09.938Z,13.66
2023-05-13T04:27:39.918Z,13.67
2023-05-13T04:30:17.388Z,13.63
2023-05-13T04:32:46.144Z,13.68
2023-05-13T04:35:14.762Z,13.70
2023-05-13T04:37:45.753Z,13.71
2023-05-13T04:40:18.114Z,13.75
2023-05-13T04:42:54.360Z,13.78
2023-05-13T04:45:26.459Z,13.75
2023-05-13T04:47:56.826Z,13.79
2023-05-13T04:50:26.384Z,13.76
2023-05-13T04:52:56.445Z,13.79
2023-05-13T04:55:27.510Z,13.71
2023-05-13T04:57:56.690Z,13.71
2023-05-13T05:00:25.598Z,13.67
2023-05-13T05:02:53.760Z,13.71
2023-05-13T05:05:23.267Z,13.64
2023-05-13T05:07:51.471Z,13.66
2023-05-13T05:10:21.119Z,13.71
2023-05-13T05:12:55.506Z,13.73
2023-05-13T05:15:24.477Z,13.76
2023-05-13T05:17:56.768Z,13.80
2023-05-13T05:20:25.349Z,13.86
2023-05-13T05:22:56.378Z,13.83
2023-05-13T05:25:27.451Z,13.86
2023-05-13T05:27:57.200Z,13.92
2023-05-13T05:30:25.808Z,13.89
2023-05-13T05:33:02.031Z,13.86
2023-05-13T05:35:30.559Z,13.83
2023-05-13T05:37:59.276Z,13.81
2023-05-13T05:40:27.342Z,13.85
2023-05-13T05:42:56.759Z,13.90
2023-05-13T05:45:24.888Z,13.95
2023-05-13T05:47:54.098Z,14.02
2023-05-13T05:50:23.653Z,14.07
2023-05-13T05:52:51.824Z,14.03
2023-05-13T05:55:20.296Z,14.06
2023-05-13T05:57:48.635Z,14.06
2023-05-13T06:00:19.664Z,14.06
2023-05-13T06:02:48.838Z,14.03
2023-05-13T06:05:17.615Z,14.00
2023-05-13T06:07:46.439Z,14.04
2023-05-13T06:10:14.494Z,14.02
2023-05-13T06:12:42.860Z,14.03
2023-05-13T06:15:12.186Z,14.03
2023-05-13T06:17:41.873Z,14.09
2023-05-13T06:20:11.326Z,14.01
2023-05-13T06:22:41.119Z,14.02
2023-05-13T06:25:10.239Z,14.08
2023-05-13T06:27:38.280Z,14.02
2023-05-13T06:30:08.197Z,14.09
2023-05-13T06:32:36.318Z,14.05
2023-05-13T06:35:07.243Z,14.07
2023-05-13T06:37:35.815Z,14.10
2023-05-13T06:40:04.281Z,14.11
2023-05-13T06:42:40.482Z,14.12
2023-05-13T06:45:16.262Z,14.11
2023-05-13T06:47:44.329Z,14.11
2023-05-13T06:50:14.004Z,14.19
2023-05-13T06:52:42.170Z,14.11
2023-05-13T06:55:11.642Z,14.13
2023-05-13T06:57:43.282Z,14.10
2023-05-13T07:00:13.793Z,14.16
2023-05-13T07:02:42.244Z,14.16
2023-05-13T07:05:12.628Z,14.17
2023-05-13T07:07:43.298Z,14.20
2023-05-13T07:10:12.032Z,14.20
2023-05-13T07:12:40.193Z,14.19
2023-05-13T07:15:09.439Z,14.23
2023-05-13T07:17:37.616Z,14.26
2023-05-13T07:20:06.926Z,14.31
2023-05-13T07:22:35.038Z,14.32
2023-05-13T07:25:05.160Z,14.29
2023-05-13T07:27:33.485Z,14.29
2023-05-13T07:30:02.859Z,14.26
2023-05-13T07:32:31.364Z,14.30
2023-05-13T07:34:59.442Z,14.37
2023-05-13T07:37:27.458Z,14.46
2023-05-13T07:39:55.508Z,14.45
2023-05-13T07:42:25.954Z,14.50
2023-05-13T07:44:54.028Z,14.48
2023-05-13T07:47:22.232Z,14.50
2023-05-13T07:49:50.919Z,14.51
2023-05-13T07:54:47.536Z,14.53
2023-05-13T07:57:15.720Z,14.52
2023-05-13T07:59:45.315Z,14.50
2023-05-13T08:02:13.638Z,14.48
2023-05-13T08:04:41.690Z,14.49
2023-05-13T08:07:11.461Z,14.55
2023-05-13T08:09:39.665Z,14.46
2023-05-13T08:12:08.501Z,14.47
2023-05-13T08:14:37.349Z,14.47
2023-05-13T08:17:08.022Z,14.48
2023-05-13T08:19:37.492Z,14.46
2023-05-13T08:22:05.858Z,14.50
2023-05-13T08:24:33.929Z,14.48
2023-05-13T08:27:02.726Z,14.48
2023-05-13T08:29:30.780Z,14.54
2023-05-13T08:31:59.019Z,14.55
2023-05-13T08:34:28.666Z,14.62
2023-05-13T08:36:56.687Z,14.63
2023-05-13T08:39:24.746Z,14.62
2023-05-13T08:41:57.673Z,14.70
2023-05-13T08:44:29.212Z,14.67
2023-05-13T08:47:09.804Z,14.66
2023-05-13T08:49:39.894Z,14.69
2023-05-13T08:52:08.098Z,14.76
2023-05-13T08:54:36.275Z,14.75
2023-05-13T08:57:04.805Z,14.79
2023-05-13T08:59:32.807Z,14.75
2023-05-13T09:02:03.321Z,14.79
2023-05-13T09:04:32.024Z,14.78
2023-05-13T09:07:02.649Z,14.77
2023-05-13T09:09:31.052Z,14.74
2023-05-13T09:11:59.051Z,14.72
2023-05-13T09:14:32.502Z,14.72
2023-05-13T09:17:01.879Z,14.77
2023-05-13T09:19:30.318Z,14.80
2023-05-13T09:21:58.498Z,14.79
2023-05-13T09:24:28.057Z,14.85
2023-05-13T09:26:56.376Z,14.91
2023-05-13T09:29:26.497Z,14.93
2023-05-13T09:31:57.866Z,14.92
2023-05-13T09:34:27.800Z,14.96
2023-05-13T09:37:01.382Z,15.00
2023-05-13T09:39:34.008Z,15.00
2023-05-13T09:42:04.902Z,14.96
2023-05-13T09:44:34.985Z,15.03
2023-05-13T09:47:03.639Z,15.03
2023-05-13T09:49:33.204Z,15.02
2023-05-13T09:52:01.295Z,15.12
2023-05-13T09:54:36.635Z,15.13
2023-05-13T09:57:05.973Z,15.13
2023-05-13T09:59:34.359Z,15.13
2023-05-13T10:02:05.583Z,15.16
2023-05-13T10:04:34.159Z,15.21
2023-05-13T10:07:05.275Z,15.28
2023-05-13T10:09:38.630Z,15.26
2023-05-13T10:12:10.433Z,15.24
2023-05-13T10:14:38.767Z,15.25
2023-05-13T10:17:09.240Z,15.29
2023-05-13T10:19:38.462Z,15.28
2023-05-13T10:22:07.501Z,15.33
2023-05-13T10:24:38.871Z,15.39
2023-05-13T10:27:07.956Z,15.39
2023-05-13T10:29:38.434Z,15.42
2023-05-13T10:32:09.035Z,15.44
2023-05-13T10:34:39.212Z,15.46
2023-05-13T10:37:46.772Z,15.47
2023-05-13T10:40:50.802Z,15.74
2023-05-13T10:43:21.668Z,15.86
2023-05-13T10:45:52.700Z,16.00
2023-05-13T10:48:20.931Z,16.04
2023-05-13T10:50:54.290Z,16.13
2023-05-13T10:53:25.280Z,16.25
2023-05-13T10:56:00.467Z,16.16
2023-05-13T10:58:33.245Z,16.29
2023-05-13T11:01:19.876Z,16.32
2023-05-13T11:03:55.747Z,16.38
2023-05-13T11:06:27.058Z,16.34
2023-05-13T11:08:56.328Z,16.31
2023-05-13T11:11:32.938Z,16.33
2023-05-13T11:14:18.573Z,16.43
2023-05-13T11:16:49.029Z,16.37
2023-05-13T11:19:22.941Z,16.38
2023-05-13T11:21:56.509Z,16.45
2023-05-13T11:24:26.029Z,16.50
2023-05-13T11:26:58.918Z,16.59
2023-05-13T11:29:32.139Z,16.54
2023-05-13T11:32:02.043Z,16.46
2023-05-13T11:34:30.346Z,16.37
2023-05-13T11:37:09.554Z,16.32
2023-05-13T11:39:41.286Z,16.22
2023-05-13T11:42:12.266Z,16.21
2023-05-13T11:44:47.639Z,16.15
2023-05-13T11:47:27.942Z,16.09
2023-05-13T11:49:57.184Z,16.08
2023-05-13T11:52:25.296Z,16.05
2023-05-13T11:54:55.113Z,16.09
2023-05-13T11:57:26.991Z,16.07
2023-05-13T11:59:58.576Z,16.07
2023-05-13T12:02:29.432Z,16.20
2023-05-13T12:05:01.871Z,16.25
2023-05-13T12:07:30.042Z,16.18
2023-05-13T12:09:59.985Z,16.23
2023-05-13T12:12:36.473Z,16.31
2023-05-13T12:15:07.800Z,16.35
2023-05-13T12:17:36.699Z,16.33
2023-05-13T12:20:11.480Z,16.37
2023-05-13T12:22:52.575Z,16.25
2023-05-13T12:25:51.122Z,16.27
2023-05-13T12:28:22.230Z,16.33
2023-05-13T12:30:53.381Z,16.37
2023-05-13T12:33:23.607Z,16.25
2023-05-13T12:35:54.125Z,16.39
2023-05-13T12:38:25.520Z,16.33
2023-05-13T12:40:54.829Z,16.39
2023-05-13T12:43:24.822Z,16.47
2023-05-13T12:45:57.607Z,16.43
2023-05-13T12:48:26.850Z,16.50
2023-05-13T12:50:56.315Z,16.50
2023-05-13T12:53:24.527Z,16.45
2023-05-13T12:55:52.867Z,16.59
2023-05-13T12:58:20.964Z,16.57
2023-05-13T13:00:50.412Z,16.64
2023-05-13T13:03:19.477Z,16.60
2023-05-13T13:05:48.615Z,16.66
2023-05-13T13:08:16.679Z,16.74
2023-05-13T13:10:44.664Z,16.82
2023-05-13T13:13:12.933Z,16.81
2023-05-13T13:15:42.871Z,16.88
2023-05-13T13:18:16.297Z,16.87
2023-05-13T13:20:45.611Z,16.80
2023-05-13T13:23:13.773Z,16.82
2023-05-13T13:25:41.827Z,16.86
2023-05-13T13:28:09.974Z,16.95
2023-05-13T13:30:37.979Z,17.03
2023-05-13T13:33:06.022Z,17.13
2023-05-13T13:35:35.443Z,17.14
2023-05-13T13:38:03.440Z,17.06
2023-05-13T13:40:31.463Z,17.14
2023-05-13T13:42:59.477Z,17.19
2023-05-13T13:45:27.541Z,17.26
2023-05-13T13:47:55.666Z,17.32
2023-05-13T13:50:24.106Z,17.36
2023-05-13T13:52:53.751Z,17.42
2023-05-13T13:55:23.240Z,17.44
2023-05-13T13:57:51.931Z,17.48
2023-05-13T14:00:21.231Z,17.50
2023-05-13T14:02:49.627Z,17.48
2023-05-13T14:05:18.190Z,17.43
2023-05-13T14:07:48.233Z,17.45
2023-05-13T14:10:17.714Z,17.37
2023-05-13T14:12:45.761Z,17.30
2023-05-13T14:15:13.881Z,17.31
2023-05-13T14:17:42.029Z,17.27
2023-05-13T14:20:12.175Z,17.27
2023-05-13T14:22:40.281Z,17.25
2023-05-13T14:25:09.300Z,17.27
2023-05-13T14:27:38.953Z,17.27
2023-05-13T14:30:09.481Z,17.29
2023-05-13T14:32:37.594Z,17.21
2023-05-13T14:35:06.884Z,17.20
2023-05-13T14:37:35.001Z,17.19
2023-05-13T14:40:03.392Z,17.24
2023-05-13T14:42:31.566Z,17.22
2023-05-13T14:45:00.972Z,17.22
2023-05-13T14:47:29.704Z,17.26
2023-05-13T14:49:57.883Z,17.31
2023-05-13T14:52:26.320Z,17.42
2023-05-13T14:54:55.165Z,17.46
2023-05-13T14:57:23.423Z,17.39
2023-05-13T14:59:52.470Z,17.39
2023-05-13T15:02:21.948Z,17.30
2023-05-13T15:04:50.210Z,17.34
2023-05-13T15:07:18.374Z,17.37
2023-05-13T15:09:46.363Z,17.28
2023-05-13T15:12:14.466Z,17.16
2023-05-13T15:14:42.450Z,17.18
2023-05-13T15:17:12.000Z,17.16
2023-05-13T15:19:41.470Z,17.19
2023-05-13T15:25:01.599Z,17.15
2023-05-13T15:27:29.789Z,17.16
2023-05-13T15:29:57.822Z,17.19
2023-05-13T15:32:25.916Z,17.24
2023-05-13T15:34:55.313Z,17.21
2023-05-13T15:37:23.474Z,17.23
2023-05-13T15:39:51.601Z,17.25
2023-05-13T15:42:19.654Z,17.24
2023-05-13T15:44:47.671Z,17.25
2023-05-13T15:47:15.773Z,17.26
2023-05-13T15:49:43.823Z,17.23
2023-05-13T15:52:14.616Z,17.22
2023-05-13T15:54:42.744Z,17.25
2023-05-13T15:57:10.771Z,17.32
2023-05-13T15:59:38.804Z,17.32
2023-05-13T16:02:07.844Z,17.33
2023-05-13T16:04:35.930Z,17.37
2023-05-13T16:07:04.005Z,17.35
2023-05-13T16:09:33.384Z,17.30
2023-05-13T16:12:01.634Z,17.26
2023-05-13T16:14:30.883Z,17.29
2023-05-13T16:17:00.685Z,17.30
2023-05-13T16:19:28.945Z,17.30
2023-05-13T16:21:56.959Z,17.25
2023-05-13T16:24:24.963Z,17.19
2023-05-13T16:26:54.309Z,17.21
2023-05-13T16:29:22.355Z,17.20
2023-05-13T16:31:50.516Z,17.16
2023-05-13T16:34:18.595Z,17.17
2023-05-13T16:36:46.634Z,17.19
2023-05-13T16:39:14.644Z,17.16
2023-05-13T16:41:42.757Z,17.16
2023-05-13T16:44:12.336Z,17.14
2023-05-13T16:46:41.018Z,17.11
2023-05-13T16:49:09.145Z,17.12
2023-05-13T16:51:37.195Z,17.12
2023-05-13T16:54:05.679Z,17.12
2023-05-13T16:56:33.690Z,17.13
2023-05-13T16:59:01.717Z,17.12
2023-05-13T17:01:31.231Z,16.91
2023-05-13T17:03:59.360Z,16.60
2023-05-13T17:06:27.370Z,16.41
2023-05-13T17:08:55.934Z,16.38
2023-05-13T17:11:23.941Z,16.55
2023-05-13T17:13:52.122Z,16.52
2023-05-13T17:16:20.192Z,16.70
2023-05-13T17:18:49.704Z,16.79
2023-05-13T17:21:17.879Z,16.88
2023-05-13T17:23:47.215Z,16.90
2023-05-13T17:26:15.696Z,16.95
2023-05-13T17:28:44.048Z,16.97
2023-05-13T17:31:12.106Z,17.01
2023-05-13T17:33:40.971Z,17.00
2023-05-13T17:36:10.899Z,17.04
2023-05-13T17:38:39.540Z,17.06
2023-05-13T17:41:07.647Z,17.03
2023-05-13T17:43:36.285Z,17.05
2023-05-13T17:46:05.337Z,17.01
2023-05-13T17:48:33.935Z,16.99
2023-05-13T17:51:02.060Z,16.97
2023-05-13T17:53:34.394Z,16.99
2023-05-13T17:56:03.345Z,16.99
2023-05-13T17:58:31.436Z,16.99
2023-05-13T18:00:59.653Z,17.00
2023-05-13T18:03:28.094Z,16.98
2023-05-13T18:05:56.360Z,17.01
2023-05-13T18:08:24.472Z,16.98
2023-05-13T18:10:57.064Z,16.98
2023-05-13T18:13:26.194Z,16.93
2023-05-13T18:15:54.284Z,16.94
2023-05-13T18:18:22.364Z,16.91
2023-05-13T18:20:50.948Z,16.88
2023-05-13T18:23:19.079Z,16.90
2023-05-13T18:25:55.649Z,16.88
2023-05-13T18:28:25.959Z,16.84
2023-05-13T18:30:54.077Z,16.83
2023-05-13T18:33:22.448Z,16.82
2023-05-13T18:35:51.515Z,16.82
2023-05-13T18:38:19.726Z,16.79
2023-05-13T18:40:47.774Z,16.79
2023-05-13T18:43:16.022Z,16.79
2023-05-13T18:45:45.720Z,16.79
2023-05-13T18:48:13.903Z,16.76
2023-05-13T18:50:42.042Z,16.77
2023-05-13T18:53:10.082Z,16.71
2023-05-13T18:55:38.170Z,16.73
2023-05-13T18:58:06.598Z,16.68
2023-05-13T19:00:34.648Z,16.67
2023-05-13T19:03:04.226Z,16.63
2023-05-13T19:05:33.027Z,16.59
2023-05-13T19:08:01.855Z,16.58
2023-05-13T19:10:29.946Z,16.56
2023-05-13T19:12:57.991Z,16.58
2023-05-13T19:15:26.415Z,16.54
2023-05-13T19:17:54.593Z,16.50
2023-05-13T19:20:25.866Z,16.48
2023-05-13T19:22:54.136Z,16.43
2023-05-13T19:25:22.237Z,16.44
2023-05-13T19:27:50.569Z,16.42
2023-05-13T19:30:18.626Z,16.42
2023-05-13T19:32:46.738Z,16.40
2023-05-13T19:35:15.339Z,16.38
2023-05-13T19:37:44.669Z,16.34
2023-05-13T19:40:13.223Z,16.29
2023-05-13T19:42:41.267Z,16.27
2023-05-13T19:45:16.840Z,16.24
2023-05-13T19:50:18.877Z,16.10
2023-05-13T19:52:48.200Z,16.07
2023-05-13T19:55:16.858Z,16.06
2023-05-13T19:57:47.448Z,16.02
2023-05-13T20:00:20.087Z,16.00
2023-05-13T20:02:48.338Z,15.97
2023-05-13T20:05:16.675Z,15.93
2023-05-13T20:07:44.772Z,15.87
2023-05-13T20:10:14.325Z,15.84
2023-05-13T20:12:42.305Z,15.76
2023-05-13T20:15:11.385Z,15.71
2023-05-13T20:17:39.719Z,15.62
2023-05-13T20:20:09.662Z,15.57
2023-05-13T20:22:37.992Z,15.51
2023-05-13T20:25:07.355Z,15.49
2023-05-13T20:27:36.763Z,15.49
2023-05-13T20:30:05.478Z,15.53
2023-05-13T20:32:33.637Z,15.47
2023-05-13T20:35:01.973Z,15.45
2023-05-13T20:37:30.360Z,15.44
2023-05-13T20:39:58.549Z,15.43
2023-05-13T20:42:27.393Z,15.37
2023-05-13T20:44:56.841Z,15.26
2023-05-13T20:47:24.933Z,15.21
2023-05-13T20:49:52.971Z,15.19
2023-05-13T20:52:21.781Z,15.17
2023-05-13T20:54:49.915Z,15.09
2023-05-13T20:57:17.911Z,15.08
2023-05-13T20:59:46.175Z,15.03
2023-05-13T21:02:18.118Z,14.98
2023-05-13T21:04:46.205Z,15.03
2023-05-13T21:07:14.258Z,15.01
2023-05-13T21:09:42.382Z,14.97
2023-05-13T21:12:11.189Z,14.97
2023-05-13T21:14:39.256Z,14.92
2023-05-13T21:17:07.689Z,14.89
2023-05-13T21:19:37.465Z,14.81
2023-05-13T21:22:06.018Z,14.80
2023-05-13T21:24:34.042Z,14.79
2023-05-13T21:27:02.082Z,14.78
2023-05-13T21:29:30.385Z,14.78
2023-05-13T21:31:58.441Z,14.76
2023-05-13T21:34:26.729Z,14.74
2023-05-13T21:36:56.068Z,14.77
2023-05-13T21:39:24.104Z,14.79
2023-05-13T21:41:52.086Z,14.84
2023-05-13T21:44:20.154Z,14.87
2023-05-13T21:46:48.220Z,14.88
2023-05-13T21:49:16.210Z,14.88
2023-05-13T21:51:44.260Z,14.91
2023-05-13T21:54:13.659Z,14.94
2023-05-13T21:56:41.627Z,14.89
2023-05-13T21:59:09.637Z,14.84
2023-05-13T22:01:37.923Z,14.82
2023-05-13T22:04:06.045Z,14.85
2023-05-13T22:06:34.261Z,14.84
2023-05-13T22:09:02.358Z,14.80
2023-05-13T22:11:31.828Z,14.82
2023-05-13T22:14:00.429Z,14.82
2023-05-13T22:16:28.646Z,14.78
2023-05-13T22:18:59.689Z,14.82
2023-05-13T22:21:27.785Z,14.82
2023-05-13T22:23:55.803Z,14.83
2023-05-13T22:26:23.842Z,14.84
2023-05-13T22:28:53.168Z,14.82
2023-05-13T22:31:21.414Z,14.83
2023-05-13T22:33:49.452Z,14.84
2023-05-13T22:36:17.483Z,14.86
2023-05-13T22:38:45.718Z,14.88
2023-05-13T22:41:14.638Z,14.90
2023-05-13T22:43:42.714Z,14.88
2023-05-13T22:46:16.031Z,14.88
2023-05-13T22:48:44.068Z,14.88
2023-05-13T22:51:14.392Z,14.90
2023-05-13T22:53:42.540Z,14.89
2023-05-13T22:56:10.679Z,14.93
2023-05-13T22:58:38.836Z,14.90
2023-05-13T23:01:06.959Z,14.90
2023-05-13T23:03:36.438Z,14.86
2023-05-13T23:06:04.864Z,14.80
2023-05-13T23:08:33.360Z,14.83
2023-05-13T23:11:01.437Z,14.86
2023-05-13T23:13:29.410Z,14.85
2023-05-13T23:15:57.500Z,14.86
2023-05-13T23:18:25.949Z,14.90
2023-05-13T23:20:56.777Z,14.87
2023-05-13T23:23:24.998Z,14.86
2023-05-13T23:25:53.077Z,14.85
2023-05-13T23:28:21.090Z,14.79
2023-05-13T23:30:49.089Z,14.74
2023-05-13T23:33:17.950Z,14.75
2023-05-13T23:35:45.947Z,14.73
2023-05-13T23:38:15.276Z,14.73
2023-05-13T23:40:43.346Z,14.74
2023-05-13T23:43:16.767Z,14.76
2023-05-13T23:45:45.561Z,14.74
2023-05-13T23:48:41.284Z,14.76
2023-05-13T23:51:11.995Z,14.77
2023-05-13T23:53:41.342Z,14.75
2023-05-13T23:59:07.516Z,14.71
